< < Back
Terminal Aerodrome Forecast


Current Version              Previous Versions:   1  2  3  4  5  6  7  8  9  

Terminal Aerodrome Forecast

669
FTUS44 KBMX 101120
TAFANB
TAF
KANB 101120Z 1012/1112 27005KT P6SM FEW070
     FM101500 29011G18KT P6SM SKC
     FM110000 27003KT P6SM SKC=

Latest METAR

411
SAUS70 KWBC 111300 RRL
MTRANB
METAR KANB 111253Z AUTO 07005KT 10SM CLR M02/M10 A3018 RMK AO2 SLP234
T10221100


USA.gov is the U.S. government's official web portal to all federal, state and local government web resources and services.